Terminal Aerodrome Forecast
Issued by NWS

Home | Current Version | Previous Version | Text Only | Print | Product List | Glossary On
Versions: 1 2 3 4 5 6 7 8 9 10 11 12 13 14 15 16 17 18 19 20
865
FTUS43 KMPX 242320
TAFRWF
TAF
KRWF 242320Z 2500/2524 05007KT P6SM OVC012
     FM250200 04009KT 6SM -SN BR OVC010
     FM250330 02008KT 2SM -SN OVC010
     FM250500 36012KT 1SM -SN OVC007
     FM251700 34012G24KT 5SM -SN OVC015
     FM252000 34011G21KT 6SM -SN OVC015=

USA.gov is the U.S. government's official web portal to all federal, state and local government web resources and services.